Thousand Island Park, New York
Current Conditions -  °F | °C
As of 3:56 AM on Thursday 23 Oct 2014 (Local Time) from KART Reporting Station
Few Clouds Few Clouds  
Wind Chill:   Ceiling: Unl
Heat Index:   Visibility: 10mi
Dew Point:   Wind: 15mph
Humidity: 65%   Direction: 20°NNE
Pressure: 30.06"   Gusts: NA
Location:  44.29°N, 76.03°W
Report Text: KART 230756Z AUTO 02013KT 10SM FEW022 07/01 A3006 RMK AO2 SLP180 T00720011
Loading
Personal Weather Stations






























Interactive Weather Map
Tropical Storm Tracking
New forecast layout! Learn more

10-Day Weather Forecast

Advertisements
Track Severe Weather on mobile